Kalamita — EMSV — position and weather

sailwx.info

Track history (hours):
 
Tides and Currents Weather Stations Pressure Air Temp Water Temp Dewpoint Dewpoint Depression Visibility Wind Speed Wind Dir Waves Ship Positions

Kalamita

Last reported at 2015-Aug-27 23:31 UTC. Time now 2015-Aug-28 00:21 UTC.
Position N 44°43' E 034°31'.

Length 55 m; draft 4 m.

Type: Fishing. MMSI: 272440000.

Date/timePositionNaut miles runAvg speedWind from/ knotsBaromVisibWave heightAir tempDewpointWater temp
2015-Aug-27 23:31N 44°43' E 034°31'0 0.0
2015-Aug-27 22:34N 44°43' E 034°31'0 0.0
2015-Aug-27 21:34N 44°43' E 034°31'0 0.0
2015-Aug-27 20:30N 44°43' E 034°31'0 0.0
2015-Aug-27 19:33N 44°43' E 034°31'0 0.0
2015-Aug-27 18:30N 44°43' E 034°31'0 0.0
2015-Aug-27 17:33N 44°43' E 034°31'0 0.2
2015-Aug-27 16:33N 44°43' E 034°31'3 2.8
2015-Aug-27 15:33N 44°42' E 034°34'3 3.0
2015-Aug-27 14:34N 44°43' E 034°39'3 3.1
2015-Aug-27 13:33N 44°43' E 034°43'3 3.4
2015-Aug-27 12:32N 44°42' E 034°38'0 0.3
2015-Aug-27 11:33N 44°43' E 034°39'3 3.3
2015-Aug-27 10:33N 44°43' E 034°43'3 3.3
2015-Aug-27 09:33N 44°44' E 034°48'3 3.1
2015-Aug-27 08:26N 44°45' E 034°53'4 1.8
2015-Aug-27 06:03N 44°44' E 034°47'2 3.0
2015-Aug-27 05:31N 44°44' E 034°44'3 2.9
2015-Aug-27 04:27N 44°44' E 034°40'3 3.0
2015-Aug-27 03:33N 44°44' E 034°36'2 0.8
2015-Aug-27 00:32N 44°44' E 034°33'1 0.9
2015-Aug-26 23:33N 44°43' E 034°33'1010.5
2015-Aug-26 22:33N 44°35' E 034°25'10 9.7
2015-Aug-26 21:33N 44°28' E 034°15'35 5.8
2015-Aug-26 15:33N 44°37' E 033°28'  
Track history (hours):
 
Tides and Currents Weather Stations Pressure Air Temp Water Temp Dewpoint Dewpoint Depression Visibility Wind Speed Wind Dir Waves Ship Positions

Kalamita

Last reported at 2015-Aug-27 23:31 UTC. Time now 2015-Aug-28 00:21 UTC.
Position N 44°43' E 034°31'.

Length 55 m; draft 4 m.

Type: Fishing. MMSI: 272440000.

Date/timePositionNaut miles runAvg speedWind from/ knotsBaromVisibWave heightAir tempDewpointWater temp
2015-Aug-27 23:31N 44°43' E 034°31'0 0.0
2015-Aug-27 22:34N 44°43' E 034°31'0 0.0
2015-Aug-27 21:34N 44°43' E 034°31'0 0.0
2015-Aug-27 20:30N 44°43' E 034°31'0 0.0
2015-Aug-27 19:33N 44°43' E 034°31'0 0.0
2015-Aug-27 18:30N 44°43' E 034°31'0 0.0
2015-Aug-27 17:33N 44°43' E 034°31'0 0.2
2015-Aug-27 16:33N 44°43' E 034°31'3 2.8
2015-Aug-27 15:33N 44°42' E 034°34'3 3.0
2015-Aug-27 14:34N 44°43' E 034°39'3 3.1
2015-Aug-27 13:33N 44°43' E 034°43'3 3.4
2015-Aug-27 12:32N 44°42' E 034°38'0 0.3
2015-Aug-27 11:33N 44°43' E 034°39'3 3.3
2015-Aug-27 10:33N 44°43' E 034°43'3 3.3
2015-Aug-27 09:33N 44°44' E 034°48'3 3.1
2015-Aug-27 08:26N 44°45' E 034°53'4 1.8
2015-Aug-27 06:03N 44°44' E 034°47'2 3.0
2015-Aug-27 05:31N 44°44' E 034°44'3 2.9
2015-Aug-27 04:27N 44°44' E 034°40'3 3.0
2015-Aug-27 03:33N 44°44' E 034°36'2 0.8
2015-Aug-27 00:32N 44°44' E 034°33'1 0.9
2015-Aug-26 23:33N 44°43' E 034°33'1010.5
2015-Aug-26 22:33N 44°35' E 034°25'10 9.7
2015-Aug-26 21:33N 44°28' E 034°15'35 5.8
2015-Aug-26 15:33N 44°37' E 033°28'  

Dump ship's entire track history